Time;durP1;ratioP1;P1;durP2;ratioP2;P2;SDS_P1;SDS_P2;PMS_P1;PMS_P2;Temp;Humidity;BMP_temperature;BMP_pressure;BME280_temperature;BME280_humidity;BME280_pressure;Samples;Min_cycle;Max_cycle;Signal;HPM_P1;HPM_P2
2021/10/26 00:01:32;;;;;;;1999.90;999.90;;;;;;;3.64;93.68;96798.47;5049797;28;20221;-66
2021/10/26 00:03:59;;;;;;;1999.90;999.90;;;;;;;3.67;93.94;96799.84;5049777;28;20673;-66
2021/10/26 00:06:26;;;;;;;1999.90;999.90;;;;;;;3.64;93.97;96797.69;5049945;28;20249;-67
2021/10/26 00:08:56;;;;;;;1999.90;999.90;;;;;;;3.62;94.68;96790.22;5049463;28;20269;-66
2021/10/26 00:11:23;;;;;;;1999.90;999.90;;;;;;;3.63;94.00;96798.72;5049706;28;20584;-68
2021/10/26 00:13:50;;;;;;;1999.90;999.90;;;;;;;3.53;94.42;96786.38;5049421;28;20622;-68
2021/10/26 00:16:17;;;;;;;1999.90;999.90;;;;;;;3.70;93.52;96789.13;5048265;28;20573;-68
2021/10/26 00:18:44;;;;;;;1999.90;999.90;;;;;;;3.57;94.31;96787.50;5049650;28;20261;-68
2021/10/26 00:21:12;;;;;;;1999.90;999.90;;;;;;;3.41;95.19;96791.47;5049485;28;20637;-68
2021/10/26 00:23:39;;;;;;;1999.90;999.90;;;;;;;3.32;95.96;96774.78;5049345;28;20204;-67
2021/10/26 00:26:07;;;;;;;1999.90;999.90;;;;;;;3.35;95.68;96784.59;5049270;28;20204;-68
2021/10/26 00:28:35;;;;;;;1999.90;999.90;;;;;;;3.40;95.50;96779.59;5049223;28;20649;-67
2021/10/26 00:31:03;;;;;;;1999.90;999.90;;;;;;;3.38;95.52;96780.84;5049835;28;20212;-67
2021/10/26 00:33:31;;;;;;;1999.90;999.90;;;;;;;3.45;95.84;96778.97;5049524;28;20749;-67
2021/10/26 00:35:58;;;;;;;1999.90;999.90;;;;;;;3.41;95.21;96775.25;5049193;28;20707;-67
2021/10/26 00:38:25;;;;;;;1999.90;999.90;;;;;;;3.38;95.56;96779.06;5049100;28;20208;-67
2021/10/26 00:40:52;;;;;;;1999.90;999.90;;;;;;;3.37;96.08;96781.84;5049387;28;20270;-67
2021/10/26 00:43:21;;;;;;;1999.90;999.90;;;;;;;3.42;95.54;96774.25;5049268;28;20208;-67
2021/10/26 00:45:48;;;;;;;1999.90;999.90;;;;;;;3.38;96.05;96768.00;5048915;28;20225;-67
2021/10/26 00:48:16;;;;;;;1999.90;999.90;;;;;;;3.38;95.79;96768.78;5048929;28;20624;-67
2021/10/26 00:50:43;;;;;;;1999.90;999.90;;;;;;;3.42;94.92;96767.34;5048889;28;20196;-67
2021/10/26 00:53:10;;;;;;;1999.90;999.90;;;;;;;3.39;95.83;96764.41;5048813;28;20269;-68
2021/10/26 00:55:37;;;;;;;1999.90;999.90;;;;;;;3.49;95.95;96758.78;5048859;28;20328;-68
2021/10/26 00:58:05;;;;;;;1999.90;999.90;;;;;;;3.43;95.53;96761.22;5049025;28;20316;-67
2021/10/26 01:00:34;;;;;;;1999.90;999.90;;;;;;;3.50;95.29;96748.25;5048727;28;20318;-67
2021/10/26 01:03:01;;;;;;;1999.90;999.90;;;;;;;3.46;96.00;96745.34;5048711;28;20676;-67
2021/10/26 01:05:28;;;;;;;1999.90;999.90;;;;;;;3.45;95.33;96742.97;5049021;28;20204;-67
2021/10/26 01:07:56;;;;;;;1999.90;999.90;;;;;;;3.40;95.38;96741.06;5048854;28;20208;-67
2021/10/26 01:10:23;;;;;;;1999.90;999.90;;;;;;;3.34;95.35;96739.34;5048485;28;20194;-67
2021/10/26 01:12:51;;;;;;;1999.90;999.90;;;;;;;3.32;96.82;96738.81;5048595;28;20201;-68
2021/10/26 01:15:18;;;;;;;1999.90;999.90;;;;;;;3.26;97.03;96731.97;5048822;28;20232;-67
2021/10/26 01:17:47;;;;;;;1999.90;999.90;;;;;;;3.31;96.70;96737.22;5048652;28;20209;-67
2021/10/26 01:20:16;;;;;;;1999.90;999.90;;;;;;;3.32;96.31;96738.03;5048403;28;20230;-67
2021/10/26 01:22:43;;;;;;;1999.90;999.90;;;;;;;3.30;96.38;96727.94;5047709;28;20193;-67
2021/10/26 01:25:12;;;;;;;1999.90;999.90;;;;;;;3.36;96.96;96726.31;5048618;28;20287;-68
2021/10/26 01:27:42;;;;;;;1999.90;999.90;;;;;;;3.20;96.73;96730.25;5048376;28;20197;-67
2021/10/26 01:30:10;;;;;;;1999.90;999.90;;;;;;;3.25;97.70;96730.38;5048332;28;20641;-67
2021/10/26 01:32:38;;;;;;;1999.90;999.90;;;;;;;3.27;97.20;96725.03;5048201;28;20201;-67
2021/10/26 01:35:06;;;;;;;1999.90;999.90;;;;;;;3.23;97.06;96719.56;5048252;28;20699;-67
2021/10/26 01:37:35;;;;;;;1999.90;999.90;;;;;;;3.31;97.40;96721.81;5048417;28;20201;-67
2021/10/26 01:40:02;;;;;;;1999.90;999.90;;;;;;;3.32;97.00;96720.81;5048310;28;20270;-67
2021/10/26 01:42:29;;;;;;;1999.90;999.90;;;;;;;3.33;97.92;96716.47;5047999;28;20677;-67
2021/10/26 01:44:57;;;;;;;1999.90;999.90;;;;;;;3.27;97.86;96715.56;5047875;28;20597;-67
2021/10/26 01:47:24;;;;;;;1999.90;999.90;;;;;;;3.31;97.52;96713.31;5048013;28;20249;-68
2021/10/26 01:49:51;;;;;;;1999.90;999.90;;;;;;;3.31;97.54;96718.47;5048186;28;20257;-68
2021/10/26 01:52:18;;;;;;;1999.90;999.90;;;;;;;3.28;96.68;96716.34;5048159;28;20261;-68
2021/10/26 01:54:46;;;;;;;1999.90;999.90;;;;;;;3.19;98.17;96708.13;5048157;28;20265;-67
2021/10/26 01:57:18;;;;;;;1999.90;999.90;;;;;;;3.11;98.71;96700.72;5048038;28;20252;-68
2021/10/26 01:59:45;;;;;;;1999.90;999.90;;;;;;;3.11;98.59;96700.72;5048056;28;20202;-67
2021/10/26 02:02:12;;;;;;;1999.90;999.90;;;;;;;3.11;99.05;96695.59;5047913;28;20229;-68
2021/10/26 02:04:39;;;;;;;1999.90;999.90;;;;;;;3.08;98.98;96700.38;5047714;28;20201;-67
2021/10/26 02:07:07;;;;;;;1999.90;999.90;;;;;;;3.16;98.50;96693.16;5047628;28;20953;-67
2021/10/26 02:09:34;;;;;;;1999.90;999.90;;;;;;;3.20;99.83;96698.63;5047903;28;20664;-67
2021/10/26 02:12:04;;;;;;;1999.90;999.90;;;;;;;3.25;99.33;96693.63;5047554;28;20193;-68
2021/10/26 02:14:31;;;;;;;1999.90;999.90;;;;;;;3.26;99.21;96693.44;5047828;28;20242;-67
2021/10/26 02:16:59;;;;;;;1999.90;999.90;;;;;;;3.21;98.98;96689.94;5047738;28;20197;-68
2021/10/26 02:19:26;;;;;;;1999.90;999.90;;;;;;;3.21;99.32;96690.72;5047765;28;20197;-68
2021/10/26 02:21:53;;;;;;;1999.90;999.90;;;;;;;3.34;98.99;96695.69;5047788;28;20224;-68
2021/10/26 02:24:20;;;;;;;1999.90;999.90;;;;;;;3.35;98.91;96692.13;5047620;28;20236;-68
2021/10/26 02:26:48;;;;;;;1999.90;999.90;;;;;;;3.24;98.99;96689.53;5047383;28;20284;-68
2021/10/26 02:29:17;;;;;;;1999.90;999.90;;;;;;;3.19;99.29;96695.28;5047342;28;20206;-68
2021/10/26 02:31:44;;;;;;;1999.90;999.90;;;;;;;3.19;99.63;96694.53;5047362;28;20744;-67
2021/10/26 02:34:11;;;;;;;1999.90;999.90;;;;;;;3.10;100.00;96688.88;5047205;28;20196;-68
2021/10/26 02:36:38;;;;;;;1999.90;999.90;;;;;;;3.12;100.00;96681.75;5047216;28;20202;-68
2021/10/26 02:39:07;;;;;;;1999.90;999.90;;;;;;;3.20;99.64;96681.44;5046832;28;20228;-67
2021/10/26 02:41:34;;;;;;;1999.90;999.90;;;;;;;3.16;100.00;96693.16;5047305;28;20273;-68
2021/10/26 02:44:01;;;;;;;1999.90;999.90;;;;;;;3.21;99.50;96689.94;5046883;28;20233;-68
2021/10/26 02:46:30;;;;;;;1999.90;999.90;;;;;;;3.18;99.64;96675.75;5047181;28;20242;-68
2021/10/26 02:48:57;;;;;;;1999.90;999.90;;;;;;;3.21;99.52;96680.44;5047384;28;20280;-68
2021/10/26 02:51:24;;;;;;;1999.90;999.90;;;;;;;3.18;99.33;96680.91;5047310;28;20189;-68
2021/10/26 02:53:51;;;;;;;1999.90;999.90;;;;;;;3.15;100.00;96677.97;5047300;28;20197;-67
2021/10/26 02:56:19;;;;;;;1999.90;999.90;;;;;;;3.13;99.66;96675.63;5047051;28;20209;-68
2021/10/26 02:58:46;;;;;;;1999.90;999.90;;;;;;;3.11;100.00;96677.63;5046903;28;20677;-67
2021/10/26 03:01:13;;;;;;;1999.90;999.90;;;;;;;3.14;100.00;96678.97;5047138;28;20224;-68
2021/10/26 03:03:42;;;;;;;1999.90;999.90;;;;;;;3.09;99.96;96679.59;5047194;28;20204;-68
2021/10/26 03:06:09;;;;;;;1999.90;999.90;;;;;;;3.07;100.00;96678.28;5046897;28;20215;-68
2021/10/26 03:08:36;;;;;;;1999.90;999.90;;;;;;;3.07;100.00;96676.50;5047064;28;20197;-68
2021/10/26 03:11:03;;;;;;;1999.90;999.90;;;;;;;3.02;99.39;96673.78;5046875;28;20665;-68
2021/10/26 03:13:30;;;;;;;1999.90;999.90;;;;;;;2.96;100.00;96672.06;5046890;28;20583;-67
2021/10/26 03:15:58;;;;;;;1999.90;999.90;;;;;;;2.90;100.00;96667.78;5046978;28;20197;-67
2021/10/26 03:18:26;;;;;;;1999.90;999.90;;;;;;;2.79;100.00;96681.38;5046787;28;20199;-67
2021/10/26 03:20:55;;;;;;;1999.90;999.90;;;;;;;2.59;100.00;96672.06;5046666;28;20277;-68
2021/10/26 03:23:22;;;;;;;1999.90;999.90;;;;;;;2.42;99.46;96673.66;5046839;28;20204;-68
2021/10/26 03:25:49;;;;;;;1999.90;999.90;;;;;;;2.34;97.77;96673.91;5046723;28;20208;-67
2021/10/26 03:28:16;;;;;;;1999.90;999.90;;;;;;;2.29;98.66;96678.88;5046869;28;20259;-67
2021/10/26 03:30:44;;;;;;;1999.90;999.90;;;;;;;2.27;98.41;96665.50;5046540;28;20192;-67
2021/10/26 03:33:11;;;;;;;1999.90;999.90;;;;;;;2.29;97.31;96665.31;5046388;28;20205;-67
2021/10/26 03:35:38;;;;;;;1999.90;999.90;;;;;;;2.23;98.92;96666.94;5046741;28;20206;-67
2021/10/26 03:38:07;;;;;;;1999.90;999.90;;;;;;;2.28;98.24;96666.28;5046745;28;20650;-67
2021/10/26 03:40:34;;;;;;;1999.90;999.90;;;;;;;2.18;99.20;96674.47;5046450;28;20207;-67
2021/10/26 03:43:01;;;;;;;1999.90;999.90;;;;;;;2.12;100.00;96670.97;5046215;28;20257;-67
2021/10/26 03:45:28;;;;;;;1999.90;999.90;;;;;;;2.19;99.87;96675.25;5046299;28;20235;-67
2021/10/26 03:47:55;;;;;;;1999.90;999.90;;;;;;;2.14;99.85;96668.22;5046816;28;20206;-67
2021/10/26 03:50:22;;;;;;;1999.90;999.90;;;;;;;2.15;99.34;96667.19;5048583;28;20200;-67
2021/10/26 03:52:49;;;;;;;1999.90;999.90;;;;;;;2.15;100.00;96654.38;5050314;28;20197;-67
2021/10/26 03:55:18;;;;;;;1999.90;999.90;;;;;;;2.26;100.00;96660.59;5049792;28;20680;-67
2021/10/26 03:57:45;;;;;;;1999.90;999.90;;;;;;;2.37;100.00;96657.31;5050005;28;20202;-67
2021/10/26 04:00:13;;;;;;;1999.90;999.90;;;;;;;2.46;100.00;96656.84;5049640;28;20208;-67
2021/10/26 04:02:41;;;;;;;1999.90;999.90;;;;;;;2.47;100.00;96655.84;5049583;28;20228;-67
2021/10/26 04:05:17;;;;;;;1999.90;999.90;;;;;;;2.32;100.00;96657.19;5049838;28;20565;-67
2021/10/26 04:07:49;;;;;;;1999.90;999.90;;;;;;;1.94;100.00;96663.25;5049818;28;20213;-67
2021/10/26 04:10:20;;;;;;;1999.90;999.90;;;;;;;1.90;100.00;96663.84;5046897;28;20189;-67
2021/10/26 04:12:47;;;;;;;1999.90;999.90;;;;;;;1.72;99.32;96659.47;5038606;28;20458;-67
2021/10/26 04:15:14;;;;;;;1999.90;999.90;;;;;;;1.42;97.57;96661.84;5029799;28;20210;-67
2021/10/26 04:17:41;;;;;;;1999.90;999.90;;;;;;;1.27;97.41;96663.88;5029540;28;20195;-67
2021/10/26 04:20:09;;;;;;;1999.90;999.90;;;;;;;1.19;97.54;96659.03;5029536;28;20304;-67
2021/10/26 04:22:36;;;;;;;1999.90;999.90;;;;;;;1.12;98.00;96664.16;5029451;28;20224;-67
2021/10/26 04:25:04;;;;;;;1999.90;999.90;;;;;;;1.07;97.44;96658.09;5029616;28;20203;-67
2021/10/26 04:27:32;;;;;;;1999.90;999.90;;;;;;;0.98;97.91;96667.00;5029758;28;20202;-67
2021/10/26 04:29:59;;;;;;;1999.90;999.90;;;;;;;1.00;97.70;96655.56;5029355;28;20203;-67
2021/10/26 04:32:26;;;;;;;1999.90;999.90;;;;;;;0.98;97.40;96656.75;5029200;28;20194;-67
2021/10/26 04:34:53;;;;;;;1999.90;999.90;;;;;;;0.80;98.06;96660.75;5036276;28;20202;-67
2021/10/26 04:37:20;;;;;;;1999.90;999.90;;;;;;;0.66;98.71;96658.44;5049288;28;20287;-67
2021/10/26 04:39:47;;;;;;;1999.90;999.90;;;;;;;0.67;98.42;96663.38;5049270;28;20204;-67
2021/10/26 04:42:14;;;;;;;1999.90;999.90;;;;;;;0.46;98.09;96655.94;5048561;28;20283;-67
2021/10/26 04:44:43;;;;;;;1999.90;999.90;;;;;;;0.51;97.68;96668.13;5048762;28;20241;-67
2021/10/26 04:47:10;;;;;;;1999.90;999.90;;;;;;;0.29;97.77;96667.59;5049195;28;20193;-67
2021/10/26 04:49:37;;;;;;;1999.90;999.90;;;;;;;0.29;97.50;96667.59;5049122;28;20669;-67
2021/10/26 04:52:04;;;;;;;1999.90;999.90;;;;;;;0.23;97.63;96666.63;5048773;28;20196;-67
2021/10/26 04:54:31;;;;;;;1999.90;999.90;;;;;;;0.12;98.23;96672.34;5048744;28;20202;-67
2021/10/26 04:56:58;;;;;;;1999.90;999.90;;;;;;;0.07;99.27;96671.34;5048998;28;20650;-67
2021/10/26 04:59:25;;;;;;;1999.90;999.90;;;;;;;0.09;98.99;96674.50;5048994;28;20223;-67
2021/10/26 05:01:54;;;;;;;1999.90;999.90;;;;;;;0.10;99.43;96676.09;5048264;28;20224;-67
2021/10/26 05:04:21;;;;;;;1999.90;999.90;;;;;;;0.08;98.54;96675.47;5048560;28;20292;-67
2021/10/26 05:06:48;;;;;;;1999.90;999.90;;;;;;;0.07;98.91;96679.03;5048835;28;20201;-67
2021/10/26 05:09:15;;;;;;;1999.90;999.90;;;;;;;0.09;99.35;96677.84;5048779;28;20201;-67
2021/10/26 05:11:42;;;;;;;1999.90;999.90;;;;;;;0.12;99.01;96676.66;5048758;28;20301;-67
2021/10/26 05:14:09;;;;;;;1999.90;999.90;;;;;;;0.15;99.17;96676.28;5048262;28;20206;-67
2021/10/26 05:16:37;;;;;;;1999.90;999.90;;;;;;;0.24;98.90;96687.84;5048446;28;20197;-67
2021/10/26 05:19:06;;;;;;;1999.90;999.90;;;;;;;0.29;98.86;96682.94;5048456;28;20232;-68
2021/10/26 05:21:34;;;;;;;1999.90;999.90;;;;;;;0.15;99.05;96683.94;5048429;28;20232;-68
2021/10/26 05:24:01;;;;;;;1999.90;999.90;;;;;;;0.18;99.26;96686.09;5048492;28;20660;-68
2021/10/26 05:26:28;;;;;;;1999.90;999.90;;;;;;;0.20;99.36;96691.81;5048509;28;20197;-68
2021/10/26 05:28:55;;;;;;;1999.90;999.90;;;;;;;0.20;99.65;96686.69;5048136;28;20208;-68
2021/10/26 05:31:22;;;;;;;1999.90;999.90;;;;;;;0.31;99.82;96686.06;5048270;28;20199;-68
2021/10/26 05:33:49;;;;;;;1999.90;999.90;;;;;;;0.34;99.86;96681.34;5048178;28;20209;-68
2021/10/26 05:36:18;;;;;;;1999.90;999.90;;;;;;;0.54;99.99;96675.41;5048034;28;20254;-68
2021/10/26 05:38:45;;;;;;;1999.90;999.90;;;;;;;0.60;100.00;96675.38;5048279;28;20193;-68
2021/10/26 05:41:13;;;;;;;1999.90;999.90;;;;;;;0.71;99.74;96679.09;5047974;28;20197;-68
2021/10/26 05:43:40;;;;;;;1999.90;999.90;;;;;;;0.55;100.00;96685.41;5047853;28;20226;-68
2021/10/26 05:46:08;;;;;;;1999.90;999.90;;;;;;;0.60;100.00;96683.06;5047914;28;20239;-69
2021/10/26 05:48:35;;;;;;;1999.90;999.90;;;;;;;0.67;100.00;96681.28;5047847;28;20213;-68
2021/10/26 05:51:04;;;;;;;1999.90;999.90;;;;;;;0.72;100.00;96683.22;5047836;28;20201;-68
2021/10/26 05:53:33;;;;;;;1999.90;999.90;;;;;;;0.74;100.00;96691.50;5048042;28;20235;-67
2021/10/26 05:56:01;;;;;;;1999.90;999.90;;;;;;;0.95;100.00;96682.75;5047736;28;20201;-68
2021/10/26 05:58:28;;;;;;;1999.90;999.90;;;;;;;1.08;100.00;96690.38;5047670;28;20198;-68
2021/10/26 06:00:56;;;;;;;1999.90;999.90;;;;;;;1.30;100.00;96686.50;5047825;28;20275;-68
2021/10/26 06:03:23;;;;;;;1999.90;999.90;;;;;;;1.51;100.00;96690.53;5047478;28;20312;-68
2021/10/26 06:05:50;;;;;;;1999.90;999.90;;;;;;;1.76;100.00;96688.00;5047569;28;20197;-68
2021/10/26 06:08:18;;;;;;;1999.90;999.90;;;;;;;1.89;100.00;96687.94;5047588;28;20675;-68
2021/10/26 06:10:52;;;;;;;1999.90;999.90;;;;;;;2.19;100.00;96691.44;5047794;28;20197;-68
2021/10/26 06:13:23;;;;;;;1999.90;999.90;;;;;;;2.29;100.00;96696.09;5046448;28;20282;-68
2021/10/26 06:15:51;;;;;;;1999.90;999.90;;;;;;;2.41;100.00;96687.47;5047895;28;20192;-68
2021/10/26 06:18:18;;;;;;;1999.90;999.90;;;;;;;2.59;100.00;96687.47;5047855;28;20242;-68
2021/10/26 06:20:45;;;;;;;1999.90;999.90;;;;;;;2.72;100.00;96691.69;5047754;28;20201;-68
2021/10/26 06:23:13;;;;;;;1999.90;999.90;;;;;;;2.87;100.00;96694.69;5047384;28;20225;-68
2021/10/26 06:25:40;;;;;;;1999.90;999.90;;;;;;;3.08;100.00;96690.91;5047651;28;20283;-68
2021/10/26 06:28:09;;;;;;;1999.90;999.90;;;;;;;3.25;100.00;96697.00;5047614;28;20546;-68
2021/10/26 06:30:36;;;;;;;1999.90;999.90;;;;;;;3.51;100.00;96700.22;5047430;28;20204;-68
2021/10/26 06:33:03;;;;;;;1999.90;999.90;;;;;;;3.73;100.00;96689.25;5047319;28;20197;-68
2021/10/26 06:35:30;;;;;;;1999.90;999.90;;;;;;;4.00;99.75;96694.75;5047442;27;20204;-68
2021/10/26 06:37:58;;;;;;;1999.90;999.90;;;;;;;4.29;99.82;96701.59;5046863;28;20201;-68
2021/10/26 06:40:25;;;;;;;1999.90;999.90;;;;;;;4.38;99.06;96696.13;5047471;28;20204;-68
2021/10/26 06:42:53;;;;;;;1999.90;999.90;;;;;;;4.65;98.11;96697.22;5047285;28;20263;-68
2021/10/26 06:45:21;;;;;;;1999.90;999.90;;;;;;;4.65;97.97;96695.44;5046965;28;20233;-68
2021/10/26 06:47:48;;;;;;;1999.90;999.90;;;;;;;4.83;98.11;96689.38;5047530;28;20220;-68
2021/10/26 06:50:15;;;;;;;1999.90;999.90;;;;;;;5.02;98.43;96693.34;5047214;28;20201;-68
2021/10/26 06:52:42;;;;;;;1999.90;999.90;;;;;;;4.98;97.41;96694.81;5047103;28;20288;-68
2021/10/26 06:55:10;;;;;;;1999.90;999.90;;;;;;;5.30;97.02;96690.00;5046937;28;20753;-68
2021/10/26 06:57:37;;;;;;;1999.90;999.90;;;;;;;5.54;95.90;96695.84;5047431;28;20221;-68
2021/10/26 07:00:06;;;;;;;1999.90;999.90;;;;;;;5.88;95.91;96697.50;5047142;28;20207;-67
2021/10/26 07:02:45;;;;;;;1999.90;999.90;;;;;;;5.84;94.17;96686.03;5046924;28;20217;-68
2021/10/26 07:05:12;;;;;;;1999.90;999.90;;;;;;;5.76;95.58;96694.19;5047180;28;20189;-68
2021/10/26 07:07:39;;;;;;;1999.90;999.90;;;;;;;6.20;94.75;96691.78;5047320;28;20208;-68
2021/10/26 07:10:07;;;;;;;1999.90;999.90;;;;;;;6.45;94.02;96694.75;5047033;27;20201;-68
2021/10/26 07:12:35;;;;;;;1999.90;999.90;;;;;;;6.70;90.31;96695.09;5046821;28;20256;-68
2021/10/26 07:15:06;;;;;;;1999.90;999.90;;;;;;;6.76;89.95;96698.53;5046705;28;20281;-68
2021/10/26 07:17:34;;;;;;;1999.90;999.90;;;;;;;6.73;90.23;96698.97;5047099;28;20568;-67
2021/10/26 07:20:02;;;;;;;1999.90;999.90;;;;;;;6.71;91.18;96691.50;5046944;28;20257;-68
2021/10/26 07:22:29;;;;;;;1999.90;999.90;;;;;;;6.85;91.41;96695.28;5046730;28;20236;-68
2021/10/26 07:24:58;;;;;;;1999.90;999.90;;;;;;;7.18;90.09;96691.00;5048158;28;20193;-68
2021/10/26 07:27:25;;;;;;;1999.90;999.90;;;;;;;7.24;88.70;96690.03;5050162;28;20201;-68
2021/10/26 07:29:52;;;;;;;1999.90;999.90;;;;;;;7.21;89.96;96693.91;5050093;28;20309;-68
2021/10/26 07:32:20;;;;;;;1999.90;999.90;;;;;;;7.48;89.86;96682.78;5050145;28;20201;-68
2021/10/26 07:34:48;;;;;;;1999.90;999.90;;;;;;;7.83;86.62;96683.13;5049496;28;20289;-68
2021/10/26 07:37:19;;;;;;;1999.90;999.90;;;;;;;7.72;84.20;96684.06;5050318;28;20261;-68
2021/10/26 07:39:47;;;;;;;1999.90;999.90;;;;;;;7.52;85.30;96687.22;5050330;28;20193;-68
2021/10/26 07:42:15;;;;;;;1999.90;999.90;;;;;;;7.56;86.00;96677.97;5049911;28;20252;-68
2021/10/26 07:44:42;;;;;;;1999.90;999.90;;;;;;;7.58;86.09;96678.50;5049735;28;20225;-68
2021/10/26 07:47:09;;;;;;;1999.90;999.90;;;;;;;7.70;84.79;96679.13;5049907;28;20289;-68
2021/10/26 07:49:36;;;;;;;1999.90;999.90;;;;;;;7.66;84.76;96683.25;5049845;28;20257;-68
2021/10/26 07:52:06;;;;;;;1999.90;999.90;;;;;;;7.71;84.17;96675.53;5050049;28;20201;-68
2021/10/26 07:54:33;;;;;;;1999.90;999.90;;;;;;;7.95;84.10;96665.63;5049969;28;20276;-68
2021/10/26 07:57:01;;;;;;;1999.90;999.90;;;;;;;8.33;81.58;96674.97;5049599;28;20205;-68
2021/10/26 07:59:28;;;;;;;1999.90;999.90;;;;;;;8.49;80.68;96683.63;5049691;28;20198;-68
2021/10/26 08:01:55;;;;;;;1999.90;999.90;;;;;;;8.51;78.82;96669.41;5049600;28;20236;-68
2021/10/26 08:04:22;;;;;;;1999.90;999.90;;;;;;;8.48;80.86;96669.13;5049407;28;20599;-68
2021/10/26 08:06:50;;;;;;;1999.90;999.90;;;;;;;8.60;79.77;96674.91;5049604;28;20205;-68
2021/10/26 08:09:18;;;;;;;1999.90;999.90;;;;;;;8.45;79.14;96669.63;5049581;28;20247;-68
2021/10/26 08:11:46;;;;;;;1999.90;999.90;;;;;;;8.45;79.08;96664.44;5049493;28;20201;-68
2021/10/26 08:14:13;;;;;;;1999.90;999.90;;;;;;;8.52;79.20;96668.34;5049413;28;20254;-68
2021/10/26 08:16:41;;;;;;;1999.90;999.90;;;;;;;8.58;78.81;96664.78;5049626;28;20269;-68
2021/10/26 08:19:08;;;;;;;1999.90;999.90;;;;;;;8.49;79.03;96666.28;5049360;28;20201;-68
2021/10/26 08:21:36;;;;;;;1999.90;999.90;;;;;;;8.58;79.80;96657.00;5049220;28;20722;-68
2021/10/26 08:24:03;;;;;;;1999.90;999.90;;;;;;;8.67;78.89;96656.53;5049538;28;20248;-68
2021/10/26 08:26:35;;;;;;;1999.90;999.90;;;;;;;8.67;77.03;96656.53;5049474;28;20212;-68
2021/10/26 08:29:09;;;;;;;1999.90;999.90;;;;;;;8.77;79.36;96651.38;5049501;28;20193;-68
2021/10/26 08:31:43;;;;;;;1999.90;999.90;;;;;;;8.77;77.91;96652.16;5049175;28;20185;-68
2021/10/26 08:34:15;;;;;;;1999.90;999.90;;;;;;;8.88;76.49;96642.63;5049364;28;20185;-69
2021/10/26 08:36:42;;;;;;;1999.90;999.90;;;;;;;8.97;78.28;96652.25;5048415;28;20194;-68
2021/10/26 08:39:10;;;;;;;1999.90;999.90;;;;;;;9.00;77.16;96645.78;5049350;28;20632;-68
2021/10/26 08:41:44;;;;;;;1999.90;999.90;;;;;;;9.00;76.33;96648.38;5048923;28;20201;-68
2021/10/26 08:44:15;;;;;;;1999.90;999.90;;;;;;;8.87;77.50;96648.81;5048827;28;20236;-68
2021/10/26 08:46:43;;;;;;;1999.90;999.90;;;;;;;8.92;77.04;96646.25;5048777;28;20584;-68
2021/10/26 08:49:12;;;;;;;1999.90;999.90;;;;;;;8.91;76.99;96649.91;5048897;28;20295;-68
2021/10/26 08:51:41;;;;;;;1999.90;999.90;;;;;;;9.07;77.22;96646.31;5049272;28;20260;-68
2021/10/26 08:54:08;;;;;;;1999.90;999.90;;;;;;;9.36;77.72;96649.25;5048878;28;20197;-68
2021/10/26 08:56:35;;;;;;;1999.90;999.90;;;;;;;9.24;76.54;96653.88;5048959;28;20205;-68
2021/10/26 08:59:03;;;;;;;1999.90;999.90;;;;;;;9.21;75.31;96652.59;5049004;28;20208;-68
2021/10/26 09:01:31;;;;;;;1999.90;999.90;;;;;;;8.98;75.99;96651.22;5048705;28;20680;-68
2021/10/26 09:04:08;;;;;;;1999.90;999.90;;;;;;;9.13;76.29;96653.06;5048910;28;20605;-68
2021/10/26 09:06:40;;;;;;;1999.90;999.90;;;;;;;9.27;75.98;96656.75;5048574;28;20280;-68
2021/10/26 09:09:14;;;;;;;1999.90;999.90;;;;;;;9.22;73.63;96655.94;5049033;28;20192;-68
2021/10/26 09:17:25;;;;;;;1999.90;999.90;;;;;;;9.38;74.97;96642.75;5048452;28;20303;-68
2021/10/26 09:19:54;;;;;;;1999.90;999.90;;;;;;;9.45;75.08;96642.53;5048385;28;20264;-68
2021/10/26 09:22:22;;;;;;;1999.90;999.90;;;;;;;9.47;74.11;96638.63;5048618;28;20606;-68
2021/10/26 09:24:57;;;;;;;1999.90;999.90;;;;;;;9.63;75.32;96636.03;5048366;28;20212;-68
2021/10/26 09:27:26;;;;;;;1999.90;999.90;;;;;;;9.58;73.69;96630.84;5048300;28;20287;-68
2021/10/26 09:29:57;;;;;;;1999.90;999.90;;;;;;;9.75;73.51;96626.97;5048553;28;20229;-68
2021/10/26 09:32:32;;;;;;;1999.90;999.90;;;;;;;9.41;76.04;96616.28;5048202;28;20181;-68
2021/10/26 09:35:03;;;;;;;1999.90;999.90;;;;;;;9.60;74.52;96615.81;5048044;28;20257;-68
2021/10/26 09:37:34;;;;;;;1999.90;999.90;;;;;;;9.69;74.04;96614.25;5046092;28;20199;-69
2021/10/26 09:40:04;;;;;;;1999.90;999.90;;;;;;;9.69;73.37;96607.25;5048457;28;20219;-69
2021/10/26 09:42:40;;;;;;;1999.90;999.90;;;;;;;9.63;73.73;96604.91;5048274;28;20205;-68
2021/10/26 09:45:11;;;;;;;1999.90;999.90;;;;;;;9.84;74.21;96596.09;5047791;28;20237;-68
2021/10/26 09:47:40;;;;;;;1999.90;999.90;;;;;;;9.84;73.62;96591.66;5047950;28;20196;-69
2021/10/26 09:50:09;;;;;;;1999.90;999.90;;;;;;;9.86;72.66;96586.97;5048269;28;20197;-68
2021/10/26 09:52:39;;;;;;;1999.90;999.90;;;;;;;9.78;72.03;96577.13;5047736;28;20253;-68
2021/10/26 09:55:14;;;;;;;1999.90;999.90;;;;;;;10.09;74.37;96567.50;5047787;28;20197;-69
2021/10/26 09:57:44;;;;;;;1999.90;999.90;;;;;;;10.17;73.15;96566.97;5048361;28;20212;-68
2021/10/26 10:00:14;;;;;;;1999.90;999.90;;;;;;;10.20;70.96;96563.84;5047712;28;20699;-68
2021/10/26 10:02:42;;;;;;;1999.90;999.90;;;;;;;10.40;70.53;96559.66;5047730;28;20181;-68
2021/10/26 10:05:20;;;;;;;1999.90;999.90;;;;;;;10.13;71.18;96558.13;5047715;28;20708;-68
2021/10/26 10:07:47;;;;;;;1999.90;999.90;;;;;;;10.06;71.64;96556.84;5048158;28;20614;-69
2021/10/26 10:10:14;;;;;;;1999.90;999.90;;;;;;;10.05;69.78;96547.50;5048235;28;20225;-69
2021/10/26 10:12:44;;;;;;;1999.90;999.90;;;;;;;10.01;70.61;96543.88;5047530;28;20262;-68
2021/10/26 10:15:16;;;;;;;1999.90;999.90;;;;;;;10.19;72.15;96536.31;5047918;28;20590;-68
2021/10/26 10:17:45;;;;;;;1999.90;999.90;;;;;;;10.34;69.12;96530.28;5047872;28;20194;-68
2021/10/26 10:20:13;;;;;;;1999.90;999.90;;;;;;;10.49;68.55;96535.44;5047559;28;20197;-68
2021/10/26 10:22:42;;;;;;;1999.90;999.90;;;;;;;10.48;69.11;96525.28;5047802;28;20205;-68
2021/10/26 10:25:12;;;;;;;1999.90;999.90;;;;;;;10.67;67.56;96524.41;5048137;28;20224;-68
2021/10/26 10:27:42;;;;;;;1999.90;999.90;;;;;;;10.50;67.48;96512.81;5047556;28;20653;-68
2021/10/26 10:30:11;;;;;;;1999.90;999.90;;;;;;;10.59;67.31;96516.41;5047409;28;20200;-68
2021/10/26 10:32:41;;;;;;;1999.90;999.90;;;;;;;10.69;65.69;96509.34;5047577;28;20213;-68
2021/10/26 10:35:12;;;;;;;1999.90;999.90;;;;;;;10.74;66.25;96503.34;5047189;28;20637;-68
2021/10/26 10:37:42;;;;;;;1999.90;999.90;;;;;;;10.79;65.22;96498.13;5047208;28;20752;-69
2021/10/26 10:40:11;;;;;;;1999.90;999.90;;;;;;;10.94;66.23;96503.22;5047523;28;20193;-69
2021/10/26 10:42:44;;;;;;;1999.90;999.90;;;;;;;11.07;63.35;96497.41;5047348;28;20284;-68
2021/10/26 10:45:23;;;;;;;1999.90;999.90;;;;;;;11.12;64.23;96493.97;5046905;28;20616;-68
2021/10/26 10:47:53;;;;;;;1999.90;999.90;;;;;;;11.14;63.91;96490.06;5047145;28;20288;-68
2021/10/26 10:50:35;;;;;;;1999.90;999.90;;;;;;;11.15;63.90;96480.44;5047397;28;20704;-68
2021/10/26 10:53:08;;;;;;;1999.90;999.90;;;;;;;11.26;63.13;96488.97;5047426;28;20222;-68
2021/10/26 10:55:39;;;;;;;1999.90;999.90;;;;;;;11.27;64.24;96480.84;5047180;28;20618;-69
2021/10/26 10:58:40;;;;;;;1999.90;999.90;;;;;;;11.24;62.41;96471.00;5047411;28;20189;-69
2021/10/26 11:01:37;;;;;;;1999.90;999.90;;;;;;;11.28;61.28;96473.84;5057256;28;20193;-69
2021/10/26 11:04:33;;;;;;;1999.90;999.90;;;;;;;11.17;62.78;96465.31;5046815;28;20201;-69
2021/10/26 11:07:02;;;;;;;1999.90;999.90;;;;;;;11.25;61.92;96464.75;5046700;27;20204;-68
2021/10/26 11:09:45;;;;;;;1999.90;999.90;;;;;;;11.10;60.53;96455.25;5047210;28;20273;-69
2021/10/26 11:12:19;;;;;;;1999.90;999.90;;;;;;;11.12;62.57;96452.34;5046770;28;20185;-68